createdAt,value
2018-02-18T00:00:41.458Z,51.39
2018-02-18T00:03:07.712Z,51.34
2018-02-18T00:05:33.914Z,51.24
2018-02-18T00:08:00.104Z,51.27
2018-02-18T00:10:26.421Z,51.24
2018-02-18T00:12:52.718Z,51.26
2018-02-18T00:15:19.019Z,51.24
2018-02-18T00:17:45.222Z,51.23
2018-02-18T00:20:11.398Z,51.28
2018-02-18T00:22:37.592Z,51.26
2018-02-18T00:25:03.831Z,51.10
2018-02-18T00:27:30.024Z,51.19
2018-02-18T00:29:56.448Z,51.04
2018-02-18T00:32:22.746Z,51.23
2018-02-18T00:34:48.929Z,51.17
2018-02-18T00:37:15.171Z,51.22
2018-02-18T00:39:41.413Z,51.23
2018-02-18T00:42:07.639Z,51.17
2018-02-18T00:44:33.905Z,51.22
2018-02-18T00:47:00.367Z,51.12
2018-02-18T00:49:26.583Z,51.03
2018-02-18T00:51:52.803Z,51.22
2018-02-18T00:54:18.968Z,51.16
2018-02-18T00:56:45.236Z,51.27
2018-02-18T00:59:11.442Z,51.16
2018-02-18T01:01:37.653Z,51.13
2018-02-18T01:04:03.862Z,51.27
2018-02-18T01:06:30.101Z,51.35
2018-02-18T01:08:56.259Z,51.47
2018-02-18T01:11:22.768Z,51.57
2018-02-18T01:13:49.206Z,51.48
2018-02-18T01:16:15.714Z,51.62
2018-02-18T01:18:42.144Z,51.61
2018-02-18T01:21:08.317Z,51.65
2018-02-18T01:23:34.795Z,51.77
2018-02-18T01:26:00.952Z,51.70
2018-02-18T01:28:27.131Z,51.63
2018-02-18T01:30:53.348Z,51.69
2018-02-18T01:33:19.543Z,51.68
2018-02-18T01:35:45.722Z,51.75
2018-02-18T01:38:11.961Z,51.81
2018-02-18T01:40:38.369Z,51.86
2018-02-18T01:43:04.546Z,51.93
2018-02-18T01:45:30.761Z,52.28
2018-02-18T01:47:56.927Z,52.28
2018-02-18T01:50:35.758Z,52.33
2018-02-18T01:53:01.925Z,52.44
2018-02-18T01:55:28.178Z,52.44
2018-02-18T01:57:54.332Z,52.48
2018-02-18T02:00:20.847Z,52.51
2018-02-18T02:02:47.086Z,52.44
2018-02-18T02:05:13.272Z,52.36
2018-02-18T02:07:39.458Z,52.62
2018-02-18T02:10:05.650Z,52.45
2018-02-18T02:12:31.852Z,52.48
2018-02-18T02:14:58.077Z,52.25
2018-02-18T02:17:24.246Z,52.38
2018-02-18T02:19:50.425Z,52.42
2018-02-18T02:22:16.886Z,52.46
2018-02-18T02:24:43.053Z,52.36
2018-02-18T02:27:09.289Z,52.60
2018-02-18T02:29:35.458Z,52.72
2018-02-18T02:32:01.919Z,52.77
2018-02-18T02:34:28.169Z,52.71
2018-02-18T02:36:54.470Z,52.72
2018-02-18T02:39:20.684Z,52.66
2018-02-18T02:41:47.103Z,52.49
2018-02-18T02:44:13.288Z,52.63
2018-02-18T02:46:39.498Z,52.50
2018-02-18T02:49:05.905Z,52.38
2018-02-18T02:51:32.136Z,52.25
2018-02-18T02:53:58.330Z,52.28
2018-02-18T02:56:24.512Z,52.36
2018-02-18T02:58:50.731Z,52.36
2018-02-18T03:01:16.901Z,52.53
2018-02-18T03:03:43.315Z,52.43
2018-02-18T03:06:09.557Z,52.62
2018-02-18T03:08:35.723Z,52.44
2018-02-18T03:11:01.890Z,52.55
2018-02-18T03:13:28.170Z,53.25
2018-02-18T03:15:54.331Z,53.49
2018-02-18T03:18:20.494Z,53.58
2018-02-18T03:20:46.703Z,53.63
2018-02-18T03:23:12.931Z,53.66
2018-02-18T03:25:39.089Z,53.62
2018-02-18T03:28:05.251Z,53.33
2018-02-18T03:30:31.501Z,53.27
2018-02-18T03:32:57.668Z,53.21
2018-02-18T03:35:23.840Z,53.67
2018-02-18T03:37:50.070Z,53.93
2018-02-18T03:40:16.257Z,53.70
2018-02-18T03:42:42.476Z,53.54
2018-02-18T03:45:08.664Z,53.08
2018-02-18T03:47:34.874Z,53.19
2018-02-18T03:50:01.279Z,53.18
2018-02-18T03:52:27.465Z,53.16
2018-02-18T03:54:53.673Z,53.20
2018-02-18T03:57:20.074Z,53.02
2018-02-18T03:59:46.245Z,53.16
2018-02-18T04:02:12.455Z,52.94
2018-02-18T04:04:38.643Z,53.02
2018-02-18T04:07:04.817Z,52.99
2018-02-18T04:09:31.043Z,52.94
2018-02-18T04:11:57.300Z,53.09
2018-02-18T04:14:23.577Z,53.15
2018-02-18T04:16:49.784Z,52.99
2018-02-18T04:19:16.206Z,53.27
2018-02-18T04:21:42.433Z,53.28
2018-02-18T04:24:08.614Z,53.12
2018-02-18T04:26:34.787Z,52.98
2018-02-18T04:29:00.996Z,52.95
2018-02-18T04:31:27.392Z,53.12
2018-02-18T04:33:53.568Z,53.03
2018-02-18T04:36:19.845Z,53.95
2018-02-18T04:38:46.031Z,54.01
2018-02-18T04:41:12.215Z,53.93
2018-02-18T04:43:38.459Z,53.91
2018-02-18T04:46:04.629Z,53.98
2018-02-18T04:48:30.793Z,53.74
2018-02-18T04:50:57.042Z,53.94
2018-02-18T04:53:24.523Z,53.78
2018-02-18T04:55:51.016Z,53.49
2018-02-18T04:58:17.550Z,53.58
2018-02-18T05:00:43.750Z,53.61
2018-02-18T05:03:09.945Z,53.47
2018-02-18T05:05:36.237Z,53.46
2018-02-18T05:08:02.466Z,53.46
2018-02-18T05:10:28.611Z,53.55
2018-02-18T05:12:54.882Z,53.54
2018-02-18T05:15:21.191Z,53.51
2018-02-18T05:17:47.378Z,53.53
2018-02-18T05:20:13.615Z,53.44
2018-02-18T05:22:39.775Z,53.60
2018-02-18T05:25:06.870Z,53.70
2018-02-18T05:27:33.085Z,53.58
2018-02-18T05:29:59.262Z,53.52
2018-02-18T05:32:25.432Z,53.36
2018-02-18T05:34:51.635Z,53.34
2018-02-18T05:37:18.125Z,53.06
2018-02-18T05:39:44.378Z,52.99
2018-02-18T05:42:10.540Z,53.13
2018-02-18T05:44:36.698Z,52.99
2018-02-18T05:47:03.240Z,52.98
2018-02-18T05:49:29.466Z,52.96
2018-02-18T05:51:56.007Z,52.94
2018-02-18T05:54:22.191Z,53.60
2018-02-18T05:56:48.663Z,53.80
2018-02-18T05:59:15.096Z,52.97
2018-02-18T06:01:41.293Z,52.81
2018-02-18T06:04:07.564Z,52.66
2018-02-18T06:06:33.726Z,52.57
2018-02-18T06:08:59.888Z,52.66
2018-02-18T06:11:26.092Z,52.68
2018-02-18T06:13:52.259Z,52.94
2018-02-18T06:16:18.556Z,52.85
2018-02-18T06:18:44.736Z,53.04
2018-02-18T06:21:10.914Z,53.00
2018-02-18T06:23:37.480Z,52.90
2018-02-18T06:26:03.691Z,52.98
2018-02-18T06:28:29.980Z,53.02
2018-02-18T06:30:56.472Z,52.73
2018-02-18T06:33:22.638Z,52.75
2018-02-18T06:35:48.851Z,52.77
2018-02-18T06:38:15.368Z,52.65
2018-02-18T06:40:41.567Z,52.43
2018-02-18T06:43:07.808Z,52.39
2018-02-18T06:45:34.045Z,52.40
2018-02-18T06:48:00.222Z,52.31
2018-02-18T06:50:26.406Z,52.72
2018-02-18T06:52:52.591Z,52.60
2018-02-18T06:55:18.785Z,52.89
2018-02-18T06:57:44.971Z,52.94
2018-02-18T07:00:11.173Z,52.79
2018-02-18T07:02:37.358Z,52.92
2018-02-18T07:05:03.873Z,53.23
2018-02-18T07:07:30.051Z,52.58
2018-02-18T07:09:56.235Z,52.01
2018-02-18T07:12:22.424Z,51.64
2018-02-18T07:14:48.598Z,51.22
2018-02-18T07:17:14.820Z,50.85
2018-02-18T07:19:40.994Z,50.56
2018-02-18T07:22:07.244Z,50.44
2018-02-18T07:24:33.435Z,50.63
2018-02-18T07:26:59.661Z,52.69
2018-02-18T07:29:25.893Z,52.13
2018-02-18T07:31:52.187Z,51.85
2018-02-18T07:34:18.418Z,51.63
2018-02-18T07:36:44.630Z,50.88
2018-02-18T07:39:10.816Z,50.73
2018-02-18T07:41:37.291Z,51.05
2018-02-18T07:44:03.829Z,51.02
2018-02-18T07:46:30.072Z,50.79
2018-02-18T07:48:56.236Z,50.63
2018-02-18T07:51:22.408Z,50.62
2018-02-18T07:53:48.606Z,50.46
2018-02-18T07:56:14.825Z,50.52
2018-02-18T07:58:40.992Z,50.44
2018-02-18T08:01:07.167Z,50.44
2018-02-18T08:03:33.375Z,50.33
2018-02-18T08:05:59.528Z,50.37
2018-02-18T08:08:25.748Z,50.27
2018-02-18T08:10:51.927Z,50.21
2018-02-18T08:13:18.363Z,49.85
2018-02-18T08:15:45.631Z,49.72
2018-02-18T08:18:11.847Z,49.59
2018-02-18T08:20:38.035Z,49.39
2018-02-18T08:23:04.221Z,49.17
2018-02-18T08:25:30.391Z,48.89
2018-02-18T08:27:56.644Z,48.87
2018-02-18T08:30:22.818Z,48.78
2018-02-18T08:32:49.039Z,48.72
2018-02-18T08:35:15.220Z,48.69
2018-02-18T08:37:41.669Z,48.61
2018-02-18T08:40:08.205Z,48.53
2018-02-18T08:42:34.383Z,48.42
2018-02-18T08:45:00.580Z,48.34
2018-02-18T08:47:27.199Z,48.49
2018-02-18T08:49:53.427Z,48.74
2018-02-18T08:52:19.589Z,48.79
2018-02-18T08:54:45.783Z,48.83
2018-02-18T08:57:12.027Z,48.87
2018-02-18T08:59:38.302Z,48.89
2018-02-18T09:02:04.486Z,48.90
2018-02-18T09:04:30.726Z,48.91
2018-02-18T09:06:56.920Z,48.94
2018-02-18T09:09:23.104Z,48.92
2018-02-18T09:11:49.346Z,48.91
2018-02-18T09:14:15.505Z,48.95
2018-02-18T09:16:41.679Z,48.49
2018-02-18T09:19:07.937Z,48.33
2018-02-18T09:21:34.390Z,48.30
2018-02-18T09:24:00.604Z,48.12
2018-02-18T09:26:26.842Z,47.89
2018-02-18T09:28:53.040Z,47.69
2018-02-18T09:31:19.210Z,47.65
2018-02-18T09:33:45.415Z,47.60
2018-02-18T09:36:11.958Z,47.46
2018-02-18T09:38:38.482Z,47.42
2018-02-18T09:41:04.742Z,47.34
2018-02-18T09:43:30.934Z,47.37
2018-02-18T09:45:57.111Z,47.40
2018-02-18T09:48:23.308Z,47.47
2018-02-18T09:50:49.533Z,47.50
2018-02-18T09:53:15.723Z,47.49
2018-02-18T09:55:42.198Z,47.53
2018-02-18T09:58:08.440Z,47.46
2018-02-18T10:00:34.964Z,47.41
2018-02-18T10:03:01.156Z,47.39
2018-02-18T10:05:27.366Z,47.37
2018-02-18T10:07:53.751Z,47.35
2018-02-18T10:10:19.969Z,47.30
2018-02-18T10:12:46.174Z,47.24
2018-02-18T10:15:12.367Z,47.16
2018-02-18T10:17:38.680Z,47.10
2018-02-18T10:20:04.944Z,47.06
2018-02-18T10:22:31.108Z,46.97
2018-02-18T10:24:57.659Z,46.87
2018-02-18T10:27:23.887Z,46.80
2018-02-18T10:29:50.060Z,46.77
2018-02-18T10:32:16.497Z,46.75
2018-02-18T10:34:42.742Z,46.73
2018-02-18T10:37:08.912Z,46.69
2018-02-18T10:39:35.099Z,46.65
2018-02-18T10:42:01.384Z,46.56
2018-02-18T10:44:27.584Z,46.47
2018-02-18T10:46:53.814Z,46.44
2018-02-18T10:49:20.343Z,46.45
2018-02-18T10:51:46.551Z,46.51
2018-02-18T10:54:13.011Z,46.53
2018-02-18T10:56:39.171Z,46.48
2018-02-18T10:59:05.370Z,46.43
2018-02-18T11:01:31.866Z,46.46
2018-02-18T11:03:58.043Z,46.39
2018-02-18T11:06:24.219Z,46.39
2018-02-18T11:08:50.441Z,46.31
2018-02-18T11:11:16.912Z,46.35
2018-02-18T11:13:43.089Z,46.37
2018-02-18T11:16:09.364Z,46.31
2018-02-18T11:18:35.901Z,46.19
2018-02-18T11:21:02.089Z,46.09
2018-02-18T11:23:28.341Z,45.89
2018-02-18T11:25:54.534Z,45.83
2018-02-18T11:28:20.731Z,45.73
2018-02-18T11:30:46.940Z,45.77
2018-02-18T11:33:13.145Z,45.74
2018-02-18T11:35:39.436Z,45.50
2018-02-18T11:38:05.599Z,45.67
2018-02-18T11:40:31.803Z,45.75
2018-02-18T11:42:58.070Z,45.90
2018-02-18T11:45:24.386Z,46.00
2018-02-18T11:47:50.662Z,46.02
2018-02-18T11:50:16.885Z,46.11
2018-02-18T11:52:43.148Z,46.08
2018-02-18T11:55:09.477Z,46.08
2018-02-18T11:57:35.682Z,46.13
2018-02-18T12:00:02.194Z,46.15
2018-02-18T12:02:28.379Z,46.14
2018-02-18T12:04:54.850Z,46.09
2018-02-18T12:07:21.056Z,46.05
2018-02-18T12:09:47.269Z,45.75
2018-02-18T12:12:13.484Z,46.08
2018-02-18T12:14:39.711Z,45.81
2018-02-18T12:17:05.929Z,45.91
2018-02-18T12:19:32.182Z,45.93
2018-02-18T12:21:58.440Z,45.85
2018-02-18T12:24:24.632Z,45.95
2018-02-18T12:26:50.869Z,45.81
2018-02-18T12:29:17.231Z,45.88
2018-02-18T12:31:43.418Z,45.93
2018-02-18T12:34:09.704Z,45.85
2018-02-18T12:36:35.917Z,45.91
2018-02-18T12:39:02.165Z,45.84
2018-02-18T12:41:28.356Z,45.40
2018-02-18T12:43:54.541Z,45.14
2018-02-18T12:46:20.760Z,45.03
2018-02-18T12:48:46.953Z,44.92
2018-02-18T12:51:15.651Z,45.00
2018-02-18T12:53:42.180Z,45.11
2018-02-18T12:56:08.355Z,45.17
2018-02-18T12:58:34.578Z,45.24
2018-02-18T13:01:00.761Z,46.08
2018-02-18T13:03:26.943Z,46.26
2018-02-18T13:05:53.420Z,46.47
2018-02-18T13:08:19.678Z,46.54
2018-02-18T13:10:45.848Z,46.67
2018-02-18T13:13:12.035Z,46.59
2018-02-18T13:15:38.228Z,46.65
2018-02-18T13:18:04.401Z,46.39
2018-02-18T13:20:30.994Z,46.13
2018-02-18T13:22:57.528Z,45.90
2018-02-18T13:25:23.963Z,45.89
2018-02-18T13:27:50.167Z,45.89
2018-02-18T13:30:16.348Z,45.85
2018-02-18T13:32:42.629Z,45.72
2018-02-18T13:35:09.059Z,45.57
2018-02-18T13:37:35.279Z,45.49
2018-02-18T13:40:01.539Z,45.33
2018-02-18T13:42:28.073Z,45.24
2018-02-18T13:44:54.249Z,45.15
2018-02-18T13:47:20.548Z,44.99
2018-02-18T13:49:46.723Z,44.84
2018-02-18T13:52:12.956Z,44.75
2018-02-18T13:54:39.116Z,44.74
2018-02-18T13:57:05.305Z,44.67
2018-02-18T13:59:31.871Z,44.65
2018-02-18T14:01:58.060Z,44.64
2018-02-18T14:04:24.293Z,44.71
2018-02-18T14:06:50.456Z,44.79
2018-02-18T14:09:16.634Z,44.85
2018-02-18T14:11:42.895Z,44.88
2018-02-18T14:14:09.078Z,44.87
2018-02-18T14:16:35.263Z,44.78
2018-02-18T14:19:01.476Z,44.75
2018-02-18T14:21:27.675Z,44.59
2018-02-18T14:23:53.907Z,44.54
2018-02-18T14:26:20.487Z,44.53
2018-02-18T14:28:46.691Z,44.53
2018-02-18T14:31:12.853Z,44.51
2018-02-18T14:33:39.075Z,44.61
2018-02-18T14:36:05.263Z,44.67
2018-02-18T14:38:31.486Z,44.85
2018-02-18T14:40:57.666Z,45.06
2018-02-18T14:43:36.104Z,45.23
2018-02-18T14:46:14.664Z,45.32
2018-02-18T14:48:53.150Z,45.32
2018-02-18T14:51:31.592Z,45.23
2018-02-18T14:54:10.437Z,45.01
2018-02-18T14:56:48.805Z,44.52
2018-02-18T14:59:14.992Z,43.92
2018-02-18T15:01:41.226Z,43.44
2018-02-18T15:04:07.536Z,43.60
2018-02-18T15:06:33.711Z,43.88
2018-02-18T15:08:59.933Z,44.29
2018-02-18T15:11:26.113Z,44.71
2018-02-18T15:13:52.347Z,45.02
2018-02-18T15:16:18.622Z,45.31
2018-02-18T15:18:44.820Z,45.54
2018-02-18T15:21:11.064Z,45.41
2018-02-18T15:23:37.244Z,45.51
2018-02-18T15:26:03.559Z,45.65
2018-02-18T15:28:29.823Z,45.66
2018-02-18T15:30:56.003Z,45.50
2018-02-18T15:33:22.187Z,45.38
2018-02-18T15:35:48.398Z,45.30
2018-02-18T15:38:14.935Z,45.29
2018-02-18T15:40:41.465Z,45.36
2018-02-18T15:43:07.701Z,45.48
2018-02-18T15:45:33.935Z,45.64
2018-02-18T15:48:00.159Z,45.66
2018-02-18T15:50:26.382Z,45.70
2018-02-18T15:52:52.571Z,45.71
2018-02-18T15:55:18.845Z,45.73
2018-02-18T15:57:45.032Z,45.88
2018-02-18T16:00:11.230Z,46.01
2018-02-18T16:02:37.515Z,46.18
2018-02-18T16:05:03.711Z,46.26
2018-02-18T16:07:29.891Z,46.36
2018-02-18T16:09:56.138Z,46.50
2018-02-18T16:12:22.315Z,46.62
2018-02-18T16:14:48.765Z,46.62
2018-02-18T16:17:15.000Z,46.52
2018-02-18T16:19:41.194Z,46.76
2018-02-18T16:22:07.393Z,46.95
2018-02-18T16:24:33.887Z,47.04
2018-02-18T16:27:00.083Z,47.09
2018-02-18T16:29:26.250Z,47.09
2018-02-18T16:31:52.525Z,47.00
2018-02-18T16:34:18.709Z,46.59
2018-02-18T16:36:44.909Z,46.49
2018-02-18T16:39:11.130Z,46.55
2018-02-18T16:41:37.412Z,46.62
2018-02-18T16:44:03.913Z,46.68
2018-02-18T16:46:30.454Z,46.71
2018-02-18T16:48:56.725Z,46.95
2018-02-18T16:51:22.994Z,47.18
2018-02-18T16:53:49.151Z,47.26
2018-02-18T16:56:15.340Z,47.37
2018-02-18T16:58:41.526Z,47.52
2018-02-18T17:01:07.782Z,47.68
2018-02-18T17:03:34.254Z,47.84
2018-02-18T17:06:00.446Z,47.95
2018-02-18T17:08:26.657Z,48.04
2018-02-18T17:10:52.829Z,48.16
2018-02-18T17:13:19.038Z,48.27
2018-02-18T17:15:45.260Z,48.34
2018-02-18T17:18:11.828Z,48.49
2018-02-18T17:20:38.082Z,48.52
2018-02-18T17:23:04.340Z,48.56
2018-02-18T17:25:30.531Z,48.58
2018-02-18T17:27:56.733Z,48.55
2018-02-18T17:30:22.952Z,48.32
2018-02-18T17:32:49.148Z,48.10
2018-02-18T17:35:15.370Z,48.13
2018-02-18T17:37:41.557Z,47.80
2018-02-18T17:40:07.725Z,47.82
2018-02-18T17:42:33.943Z,47.79
2018-02-18T17:45:00.436Z,47.98
2018-02-18T17:47:26.971Z,48.12
2018-02-18T17:49:53.186Z,48.21
2018-02-18T17:52:19.391Z,48.25
2018-02-18T17:54:45.551Z,48.34
2018-02-18T17:57:11.768Z,48.46
2018-02-18T17:59:38.217Z,48.44
2018-02-18T18:02:04.435Z,48.17
2018-02-18T18:04:30.647Z,48.25
2018-02-18T18:06:56.878Z,48.23
2018-02-18T18:09:23.080Z,48.22
2018-02-18T18:11:49.306Z,48.28
2018-02-18T18:14:15.587Z,48.38
2018-02-18T18:16:41.761Z,48.42
2018-02-18T18:19:08.030Z,48.42
2018-02-18T18:21:34.368Z,48.46
2018-02-18T18:24:00.548Z,48.52
2018-02-18T18:26:26.802Z,48.58
2018-02-18T18:28:52.980Z,48.56
2018-02-18T18:31:19.486Z,48.55
2018-02-18T18:33:45.698Z,48.76
2018-02-18T18:36:11.883Z,48.86
2018-02-18T18:38:38.092Z,48.99
2018-02-18T18:41:04.260Z,48.71
2018-02-18T18:43:30.447Z,48.40
2018-02-18T18:45:56.642Z,48.16
2018-02-18T18:48:22.855Z,48.08
2018-02-18T18:50:49.414Z,48.10
2018-02-18T18:53:15.845Z,48.12
2018-02-18T18:55:42.021Z,48.12
2018-02-18T18:58:08.254Z,48.14
2018-02-18T19:00:34.451Z,48.18
2018-02-18T19:03:00.629Z,48.18
2018-02-18T19:05:26.847Z,48.22
2018-02-18T19:07:53.034Z,48.28
2018-02-18T19:10:19.244Z,48.28
2018-02-18T19:12:45.418Z,48.30
2018-02-18T19:15:11.627Z,48.31
2018-02-18T19:17:37.829Z,48.33
2018-02-18T19:20:03.997Z,48.36
2018-02-18T19:22:30.255Z,48.37
2018-02-18T19:24:56.423Z,48.39
2018-02-18T19:27:22.611Z,48.38
2018-02-18T19:29:48.840Z,48.38
2018-02-18T19:32:15.032Z,48.34
2018-02-18T19:34:41.212Z,48.36
2018-02-18T19:37:07.441Z,48.39
2018-02-18T19:39:33.600Z,48.37
2018-02-18T19:41:59.770Z,48.39
2018-02-18T19:44:26.329Z,48.38
2018-02-18T19:46:52.516Z,48.42
2018-02-18T19:49:18.724Z,48.41
2018-02-18T19:51:44.930Z,48.43
2018-02-18T19:54:11.091Z,48.43
2018-02-18T19:56:37.272Z,48.37
2018-02-18T19:59:03.424Z,48.33
2018-02-18T20:01:29.697Z,48.33
2018-02-18T20:03:55.879Z,48.31
2018-02-18T20:06:22.324Z,48.28
2018-02-18T20:08:48.517Z,48.33
2018-02-18T20:11:14.681Z,48.28
2018-02-18T20:13:40.916Z,48.29
2018-02-18T20:16:07.095Z,48.27
2018-02-18T20:18:33.273Z,48.28
2018-02-18T20:20:59.453Z,48.36
2018-02-18T20:23:25.983Z,48.34
2018-02-18T20:25:52.226Z,48.32
2018-02-18T20:28:18.396Z,48.32
2018-02-18T20:30:44.579Z,48.34
2018-02-18T20:33:10.774Z,48.31
2018-02-18T20:35:36.944Z,48.33
2018-02-18T20:38:03.151Z,48.32
2018-02-18T20:40:29.318Z,48.34
2018-02-18T20:42:55.494Z,48.32
2018-02-18T20:45:21.699Z,48.34
2018-02-18T20:47:47.869Z,48.34
2018-02-18T20:50:14.101Z,48.27
2018-02-18T20:52:43.124Z,48.34
2018-02-18T20:55:09.286Z,48.30
2018-02-18T20:57:41.559Z,48.33
2018-02-18T21:00:07.738Z,48.34
2018-02-18T21:02:33.956Z,48.36
2018-02-18T21:05:00.132Z,48.28
2018-02-18T21:07:26.381Z,48.25
2018-02-18T21:09:52.568Z,48.23
2018-02-18T21:12:18.732Z,48.18
2018-02-18T21:17:16.815Z,48.17
2018-02-18T21:19:42.991Z,48.16
2018-02-18T21:22:09.181Z,48.16
2018-02-18T21:24:35.716Z,48.17
2018-02-18T21:27:02.161Z,48.21
2018-02-18T21:29:28.563Z,48.24
2018-02-18T21:31:54.711Z,48.29
2018-02-18T21:34:20.952Z,48.25
2018-02-18T21:36:47.104Z,48.20
2018-02-18T21:39:13.270Z,48.24
2018-02-18T21:41:39.491Z,48.30
2018-02-18T21:44:05.944Z,48.30
2018-02-18T21:46:32.385Z,48.30
2018-02-18T21:48:58.626Z,48.27
2018-02-18T21:51:24.816Z,48.29
2018-02-18T21:53:51.003Z,48.32
2018-02-18T21:56:17.236Z,48.28
2018-02-18T21:58:43.453Z,48.30
2018-02-18T22:01:09.617Z,48.31
2018-02-18T22:03:36.933Z,48.29
2018-02-18T22:06:03.094Z,48.29
2018-02-18T22:08:29.259Z,48.24
2018-02-18T22:10:55.483Z,48.26
2018-02-18T22:13:21.682Z,48.26
2018-02-18T22:15:47.843Z,48.23
2018-02-18T22:18:14.050Z,48.21
2018-02-18T22:20:40.213Z,48.21
2018-02-18T22:23:06.508Z,48.16
2018-02-18T22:25:32.766Z,48.09
2018-02-18T22:27:59.083Z,48.15
2018-02-18T22:30:25.253Z,48.17
2018-02-18T22:32:51.656Z,48.11
2018-02-18T22:35:17.890Z,48.12
2018-02-18T22:37:44.075Z,48.10
2018-02-18T22:40:10.253Z,48.08
2018-02-18T22:42:36.490Z,48.08
2018-02-18T22:45:02.756Z,48.04
2018-02-18T22:47:28.983Z,48.07
2018-02-18T22:49:55.418Z,48.11
2018-02-18T22:52:21.643Z,48.10
2018-02-18T22:54:47.791Z,48.04
2018-02-18T22:57:13.971Z,47.97
2018-02-18T22:59:40.184Z,48.01
2018-02-18T23:02:06.361Z,48.02
2018-02-18T23:04:32.523Z,48.05
2018-02-18T23:07:04.777Z,48.05
2018-02-18T23:09:30.949Z,48.03
2018-02-18T23:11:57.539Z,48.03
2018-02-18T23:14:23.710Z,48.02
2018-02-18T23:16:49.861Z,48.06
2018-02-18T23:19:16.082Z,48.03
2018-02-18T23:21:42.239Z,48.06
2018-02-18T23:24:08.405Z,48.08
2018-02-18T23:26:34.664Z,48.03
2018-02-18T23:29:01.128Z,48.01
2018-02-18T23:31:27.339Z,48.02
2018-02-18T23:33:53.792Z,48.02
2018-02-18T23:36:19.971Z,48.00
2018-02-18T23:38:46.157Z,47.95
2018-02-18T23:41:12.336Z,47.94
2018-02-18T23:43:38.569Z,47.92
2018-02-18T23:46:05.036Z,47.91
2018-02-18T23:48:31.212Z,47.91
2018-02-18T23:50:57.396Z,48.00
2018-02-18T23:53:23.568Z,47.97
2018-02-18T23:55:49.780Z,47.95
2018-02-18T23:58:15.945Z,47.99
